createdAt,value
2022-11-18T00:00:29.210Z,22.4
2022-11-18T00:05:58.726Z,22.4
2022-11-18T00:11:29.210Z,22.4
2022-11-18T00:16:59.692Z,22.4
2022-11-18T00:22:30.290Z,22.4
2022-11-18T00:28:00.767Z,22.4
2022-11-18T00:33:31.218Z,22.4
2022-11-18T00:39:01.909Z,22.4
2022-11-18T00:44:32.393Z,22.4
2022-11-18T00:50:01.912Z,22.4
2022-11-18T00:55:32.364Z,22.4
2022-11-18T01:01:02.927Z,22.4
2022-11-18T01:06:33.472Z,22.4
2022-11-18T01:12:03.940Z,22.4
2022-11-18T01:17:34.448Z,22.4
2022-11-18T01:23:05.015Z,22.5
2022-11-18T01:28:35.477Z,22.5
2022-11-18T01:34:05.993Z,22.5
2022-11-18T01:39:35.471Z,22.5
2022-11-18T01:45:05.961Z,22.5
2022-11-18T01:50:36.433Z,22.4
2022-11-18T01:56:06.981Z,22.5
2022-11-18T02:01:37.594Z,22.4
2022-11-18T02:07:08.128Z,22.4
2022-11-18T02:12:38.528Z,22.4
2022-11-18T02:18:08.996Z,22.4
2022-11-18T02:23:39.613Z,22.4
2022-11-18T02:29:10.194Z,22.3
2022-11-18T02:34:40.664Z,22.3
2022-11-18T02:40:11.291Z,22.3
2022-11-18T02:45:41.769Z,22.3
2022-11-18T02:51:12.266Z,22.3
2022-11-18T02:56:43.061Z,22.4
2022-11-18T03:02:13.449Z,22.3
2022-11-18T03:07:44.111Z,22.3
2022-11-18T03:13:14.552Z,22.3
2022-11-18T03:18:45.025Z,22.3
2022-11-18T03:24:15.610Z,22.3
2022-11-18T03:29:46.108Z,22.3
2022-11-18T03:35:16.533Z,22.3
2022-11-18T03:40:47.004Z,22.3
2022-11-18T03:46:16.617Z,22.3
2022-11-18T03:51:46.968Z,22.3
2022-11-18T03:57:17.496Z,22.3
2022-11-18T04:02:48.061Z,22.3
2022-11-18T04:08:18.632Z,22.3
2022-11-18T04:13:49.115Z,22.3
2022-11-18T04:19:18.886Z,22.3
2022-11-18T04:24:49.089Z,22.3
2022-11-18T04:30:18.574Z,22.3
2022-11-18T04:35:49.147Z,22.3
2022-11-18T04:41:19.658Z,22.3
2022-11-18T04:46:49.016Z,22.3
2022-11-18T04:52:19.693Z,22.3
2022-11-18T04:57:50.100Z,22.3
2022-11-18T05:03:19.573Z,22.3
2022-11-18T05:08:50.099Z,22.3
2022-11-18T05:14:19.561Z,22.3
2022-11-18T05:19:50.036Z,22.3
2022-11-18T05:25:20.533Z,22.4
2022-11-18T05:30:50.020Z,22.4
2022-11-18T05:36:20.515Z,22.4
2022-11-18T05:41:51.084Z,22.4
2022-11-18T05:47:20.483Z,22.4
2022-11-18T05:52:51.044Z,22.5
2022-11-18T05:58:21.663Z,22.6
2022-11-18T06:03:52.107Z,22.5
2022-11-18T06:09:22.570Z,22.5
2022-11-18T06:14:53.219Z,22.5
2022-11-18T06:20:23.680Z,22.5
2022-11-18T06:25:54.136Z,22.5
2022-11-18T06:31:23.759Z,22.5
2022-11-18T06:36:54.097Z,22.5
2022-11-18T06:42:24.542Z,22.5
2022-11-18T06:47:54.073Z,22.5
2022-11-18T06:53:24.510Z,22.4
2022-11-18T06:58:54.013Z,22.4
2022-11-18T07:04:24.506Z,22.5
2022-11-18T07:09:55.112Z,22.4
2022-11-18T07:15:24.582Z,22.4
2022-11-18T07:20:55.059Z,22.4
2022-11-18T07:26:25.660Z,22.4
2022-11-18T07:31:56.166Z,22.4
2022-11-18T07:37:26.606Z,22.3
2022-11-18T07:42:57.211Z,22.4
2022-11-18T07:48:27.811Z,22.3
2022-11-18T07:53:58.283Z,22.4
2022-11-18T07:59:28.883Z,22.4
2022-11-18T08:04:59.434Z,22.4
2022-11-18T08:10:29.884Z,22.4
2022-11-18T08:16:00.547Z,22.4
2022-11-18T08:21:31.014Z,22.4
2022-11-18T08:27:00.541Z,22.4
2022-11-18T08:32:30.965Z,22.4
2022-11-18T08:38:01.463Z,22.5
2022-11-18T08:43:31.059Z,22.6
2022-11-18T08:49:01.422Z,22.6
2022-11-18T08:54:31.893Z,22.5
2022-11-18T09:00:01.415Z,22.5
2022-11-18T09:05:31.876Z,22.5
2022-11-18T09:11:01.370Z,22.5
2022-11-18T09:16:32.011Z,22.5
2022-11-18T09:22:02.447Z,22.5
2022-11-18T09:27:32.918Z,22.4
2022-11-18T09:33:03.558Z,22.4
2022-11-18T09:38:34.009Z,22.4
2022-11-18T09:44:04.598Z,22.4
2022-11-18T09:49:35.165Z,22.4
2022-11-18T09:55:05.555Z,22.4
2022-11-18T10:00:35.041Z,22.4
2022-11-18T10:06:05.638Z,22.4
2022-11-18T10:11:40.214Z,22.4
2022-11-18T10:17:06.593Z,22.4
2022-11-18T10:22:37.076Z,22.4
2022-11-18T10:28:07.580Z,22.4
2022-11-18T10:33:38.182Z,22.4
2022-11-18T10:39:08.682Z,22.5
2022-11-18T10:44:38.157Z,22.5
2022-11-18T10:50:08.863Z,22.5
2022-11-18T10:55:39.263Z,22.5
2022-11-18T11:01:08.793Z,22.5
2022-11-18T11:06:39.083Z,22.5
2022-11-18T11:12:09.709Z,22.5
2022-11-18T11:17:40.232Z,22.5
2022-11-18T11:23:09.649Z,22.5
2022-11-18T11:28:40.190Z,22.5
2022-11-18T11:34:10.599Z,22.5
2022-11-18T11:39:40.086Z,22.5
2022-11-18T11:45:10.588Z,22.6
2022-11-18T11:50:41.037Z,22.6
2022-11-18T11:56:11.637Z,22.6
2022-11-18T12:01:42.114Z,22.6
2022-11-18T12:07:12.677Z,22.6
2022-11-18T12:12:43.157Z,22.6
2022-11-18T12:18:13.670Z,22.6
2022-11-18T12:23:44.267Z,22.6
2022-11-18T12:29:13.735Z,22.6
2022-11-18T12:34:44.280Z,22.6
2022-11-18T12:40:13.722Z,22.6
2022-11-18T12:45:44.181Z,22.6
2022-11-18T12:51:14.682Z,22.6
2022-11-18T12:56:44.164Z,22.6
2022-11-18T13:02:14.648Z,22.6
2022-11-18T13:07:45.277Z,22.6
2022-11-18T13:13:14.604Z,22.6
2022-11-18T13:18:45.067Z,22.6
2022-11-18T13:24:14.596Z,22.6
2022-11-18T13:29:49.794Z,22.6
2022-11-18T13:35:15.514Z,22.6
2022-11-18T13:40:45.043Z,22.6
2022-11-18T13:46:15.486Z,22.6
2022-11-18T13:51:44.977Z,22.6
2022-11-18T13:57:15.505Z,22.6
2022-11-18T14:02:45.939Z,22.6
2022-11-18T14:08:16.540Z,22.6
2022-11-18T14:13:47.159Z,22.6
2022-11-18T14:19:17.760Z,22.6
2022-11-18T14:24:47.112Z,22.6
2022-11-18T14:30:18.236Z,22.6
2022-11-18T14:35:48.092Z,22.5
2022-11-18T14:41:17.573Z,22.5
2022-11-18T14:46:48.088Z,22.5
2022-11-18T14:52:17.536Z,22.5
2022-11-18T14:57:48.026Z,22.6
2022-11-18T15:03:18.738Z,22.5
2022-11-18T15:08:49.090Z,22.5
2022-11-18T15:14:19.892Z,22.5
2022-11-18T15:19:50.182Z,22.5
2022-11-18T15:25:20.672Z,22.5
2022-11-18T15:30:51.130Z,22.5
2022-11-18T15:36:20.629Z,22.5
2022-11-18T15:41:51.091Z,22.5
2022-11-18T15:47:21.543Z,22.5
2022-11-18T15:52:52.190Z,22.5
2022-11-18T15:58:22.651Z,22.5
2022-11-18T16:03:53.110Z,22.5
2022-11-18T16:09:23.740Z,22.5
2022-11-18T16:14:54.183Z,22.5
2022-11-18T16:20:23.680Z,22.5
2022-11-18T16:25:54.270Z,22.5
2022-11-18T16:31:24.705Z,22.5
2022-11-18T16:36:54.175Z,22.4
2022-11-18T16:42:24.664Z,22.4
2022-11-18T16:47:55.103Z,22.4
2022-11-18T16:53:25.706Z,22.4
2022-11-18T16:58:56.341Z,22.5
2022-11-18T17:04:26.659Z,22.5
2022-11-18T17:09:57.265Z,22.5
2022-11-18T17:15:27.748Z,22.5
2022-11-18T17:20:57.232Z,22.5
2022-11-18T17:26:27.727Z,22.5
2022-11-18T17:31:58.204Z,22.5
2022-11-18T17:37:27.668Z,22.5
2022-11-18T17:42:58.158Z,22.5
2022-11-18T17:48:28.665Z,22.5
2022-11-18T17:53:59.225Z,22.5
2022-11-18T17:59:29.710Z,22.5
2022-11-18T18:05:00.203Z,22.5
2022-11-18T18:10:29.667Z,22.5
2022-11-18T18:16:00.140Z,22.5
2022-11-18T18:21:30.639Z,22.5
2022-11-18T18:27:01.217Z,22.5
2022-11-18T18:32:31.822Z,22.5
2022-11-18T18:38:02.309Z,22.5
2022-11-18T18:43:32.757Z,22.5
2022-11-18T18:49:03.367Z,22.5
2022-11-18T18:54:33.870Z,22.5
2022-11-18T19:00:04.431Z,22.5
2022-11-18T19:06:08.584Z,22.5
2022-11-18T19:11:05.406Z,22.5
2022-11-18T19:16:34.870Z,22.5
2022-11-18T19:22:05.346Z,22.5
2022-11-18T19:27:35.853Z,22.5
2022-11-18T19:33:06.455Z,22.5
2022-11-18T19:38:36.935Z,22.5
2022-11-18T19:44:07.452Z,22.5
2022-11-18T19:49:38.027Z,22.5
2022-11-18T19:55:08.490Z,22.5
2022-11-18T20:00:39.014Z,22.6
2022-11-18T20:06:09.555Z,22.6
2022-11-18T20:11:40.035Z,22.6
2022-11-18T20:17:10.538Z,22.7
2022-11-18T20:22:41.144Z,22.8
2022-11-18T20:28:13.386Z,22.9
2022-11-18T20:33:41.219Z,22.9
2022-11-18T20:39:11.659Z,22.9
2022-11-18T20:44:42.176Z,22.9
2022-11-18T20:50:11.725Z,22.9
2022-11-18T20:55:42.133Z,22.9
2022-11-18T21:01:12.738Z,23
2022-11-18T21:06:43.227Z,22.9
2022-11-18T21:12:13.691Z,23
2022-11-18T21:17:44.157Z,23
2022-11-18T21:23:14.919Z,23
2022-11-18T21:28:45.237Z,23
2022-11-18T21:34:14.728Z,23
2022-11-18T21:39:45.231Z,23
2022-11-18T21:45:15.685Z,23
2022-11-18T21:50:46.287Z,23
2022-11-18T21:56:16.791Z,23
2022-11-18T22:01:47.247Z,23
2022-11-18T22:07:18.064Z,23
2022-11-18T22:12:48.495Z,23
2022-11-18T22:18:16.966Z,23
2022-11-18T22:23:47.442Z,23
2022-11-18T22:29:18.163Z,23
2022-11-18T22:34:51.687Z,23.1
2022-11-18T22:40:17.883Z,23
2022-11-18T22:45:47.409Z,22.9
2022-11-18T22:51:17.849Z,22.9
2022-11-18T22:56:48.333Z,22.8
2022-11-18T23:02:17.832Z,22.8
2022-11-18T23:07:48.349Z,22.8
2022-11-18T23:13:18.881Z,22.8
2022-11-18T23:18:49.379Z,22.8
2022-11-18T23:24:19.822Z,22.8
2022-11-18T23:29:50.432Z,22.9
2022-11-18T23:35:21.048Z,22.9
2022-11-18T23:40:51.382Z,22.8
2022-11-18T23:46:20.867Z,22.8
2022-11-18T23:51:51.365Z,22.9
2022-11-18T23:57:20.819Z,22.8
